Terminal Aerodrome Forecast
Issued by NWS Spokane, WA

Home | Current Version | Previous Version | Text Only | Print | Product List | Glossary On
Versions: 1 2 3 4 5 6 7 8 9 10 11 12
000
FTUS46 KOTX 282336
TAFLWS
TAF
KLWS 282336Z 2900/2924 11011KT P6SM SCT060 OVC090
     FM290400 14005KT P6SM VCSH BKN060 OVC080
     FM290600 14003KT P6SM -SHRA OVC050
     FM291600 VRB03KT P6SM -RA SCT050 BKN090=

USA.gov is the U.S. government's official web portal to all federal, state and local government web resources and services.